Briefing drone pour Livron-sur-drome

Rechercher une autre localisation

Conditions de vol :


Nous sommes le : Dimanche 25 juillet 2021
Il est 17:08 UTC (19:08 LT)

Lever de soleil : 03:53 UTC (05:53 LT)
Coucher de soleil : 19:41 UTC (21:41 LT)

Météo

L'essentiel des conditions de vol

VIGILANCE MÉTÉO FRANCE - Drôme (26)
Pas de vigilances particulieres
METAR de LFLU
LFLU 251700Z AUTO 33005KT 300V360 CAVOK 29/14 Q1008

Date d'émission: 25/07/2021
Heure d'émission: 17:00 UTC
Vent: 330° (variable du 300° au 360°) pour 5 KT (9 km/h)
Visibilité horizontale: > 10 km
Plafond : Plafond et visibilité OK (CAVOK)
Température: 29 °C
Point de rosée: 14 °C
Humidité: 40%
Pression (QNH): 1008 hPa
Prévision 24h pour Valence (12 km)
Vent : 2° pour 5 KT (17 km/h)
Temperature Maxi: 26 °C
Temperature Min: 26 °C
Humidité : 49%
Condition : Partiellement nuageux



Warning: count(): Parameter must be an array or an object that implements Countable in /homepages/6/d509196549/htdocs/droneoxygene/briefing.php on line 743
WEBCAM POUR LIVRON-SUR-DROME

Réglementation

Voler en sécurité

CARTES AERONAUTIQUE 1/500.000
CARTES VAC (LFLU)
SUP AIP




Chargement des AIP...
NOTAM (LIVRON-SUR-DROME + Terrain à proximité / FIR )




Chargement des NOTAMS...
CONTACT PREFECTURE 26
Drôme (26) : ddt-satem@drome.gouv.fr


Avertissement : Les données mises à disposition sont indicatives. Oxygène Drone ne pourra être tenu responsable de dégâts causés aux biens et aux personnes.